Time;durP1;ratioP1;P1;durP2;ratioP2;P2;SDS_P1;SDS_P2;PMS_P1;PMS_P2;Temp;Humidity;BMP_temperature;BMP_pressure;BME280_temperature;BME280_humidity;BME280_pressure;Samples;Min_cycle;Max_cycle;Signal;HPM_P1;HPM_P2
2024/03/18 00:00:01;;;;;;;13.73;12.32;;;;;;;10.30;100.00;101505.09;5076047;28;20415;-79
2024/03/18 00:02:30;;;;;;;13.27;11.88;;;;;;;10.29;100.00;101503.38;5094383;28;20246;-79
2024/03/18 00:04:56;;;;;;;17.88;13.70;;;;;;;10.27;100.00;101509.56;5097131;28;20242;-79
2024/03/18 00:07:22;;;;;;;16.42;14.00;;;;;;;10.24;100.00;101507.00;5077895;28;20099;-79
2024/03/18 00:09:48;;;;;;;19.17;15.13;;;;;;;10.20;100.00;101501.00;5077715;28;20095;-79
2024/03/18 00:12:14;;;;;;;21.48;15.52;;;;;;;10.19;100.00;101509.78;5094804;28;20040;-79
2024/03/18 00:14:43;;;;;;;17.60;14.20;;;;;;;10.19;100.00;101504.56;5096233;28;20051;-79
2024/03/18 00:17:11;;;;;;;21.92;14.80;;;;;;;10.16;100.00;101505.47;5082802;28;20048;-78
2024/03/18 00:19:37;;;;;;;15.63;13.77;;;;;;;10.16;100.00;101505.47;5078634;28;20028;-78
2024/03/18 00:22:02;;;;;;;17.80;14.93;;;;;;;10.19;100.00;101499.31;5081181;28;20021;-78
2024/03/18 00:24:27;;;;;;;16.45;13.95;;;;;;;10.18;100.00;101503.66;5092491;28;20046;-78
2024/03/18 00:26:53;;;;;;;23.25;15.23;;;;;;;10.14;100.00;101509.06;5099708;28;20036;-77
2024/03/18 00:29:19;;;;;;;19.73;15.00;;;;;;;10.10;100.00;101503.03;5098640;28;20617;-78
2024/03/18 00:31:45;;;;;;;20.17;14.55;;;;;;;10.10;100.00;101503.03;5092541;28;20239;-78
2024/03/18 00:34:11;;;;;;;19.10;14.82;;;;;;;10.09;100.00;101498.69;5079982;28;20174;-78
2024/03/18 00:36:36;;;;;;;18.77;14.10;;;;;;;10.08;100.00;101488.31;5082726;28;20350;-78
2024/03/18 00:39:02;;;;;;;28.63;16.45;;;;;;;10.03;100.00;101488.41;5100243;28;20102;-78
2024/03/18 00:41:46;;;;;;;18.60;14.68;;;;;;;10.05;100.00;101489.22;5099225;28;20224;-78
2024/03/18 00:44:16;;;;;;;19.42;15.25;;;;;;;10.03;100.00;101479.72;5099793;28;20414;-77
2024/03/18 00:46:46;;;;;;;18.40;15.23;;;;;;;10.04;100.00;101491.88;5098662;28;20044;-78
2024/03/18 00:49:13;;;;;;;18.17;15.00;;;;;;;10.02;100.00;101484.06;5079524;28;20039;-78
2024/03/18 00:51:39;;;;;;;19.30;14.75;;;;;;;10.03;100.00;101485.78;5071250;28;20028;-78
2024/03/18 00:54:05;;;;;;;18.35;14.65;;;;;;;10.03;100.00;101479.72;5086586;28;20241;-78
2024/03/18 00:56:33;;;;;;;16.48;13.68;;;;;;;10.01;100.00;101474.50;5098031;28;20512;-77
2024/03/18 00:59:00;;;;;;;17.27;13.77;;;;;;;10.01;100.00;101476.28;5082242;28;20048;-78
2024/03/18 01:01:25;;;;;;;20.45;14.10;;;;;;;9.99;100.00;101476.31;5080768;28;20523;-78
2024/03/18 01:03:50;;;;;;;17.98;14.23;;;;;;;9.98;100.00;101477.22;5095366;28;20028;-78
2024/03/18 01:06:16;;;;;;;17.63;14.73;;;;;;;9.98;100.00;101477.22;5098735;28;20082;-78
2024/03/18 01:08:41;;;;;;;18.83;14.52;;;;;;;9.98;100.00;101471.97;5069458;28;20035;-78
2024/03/18 01:11:06;;;;;;;18.45;13.68;;;;;;;9.97;100.00;101473.75;5085885;28;20074;-77
2024/03/18 01:13:33;;;;;;;16.40;13.27;;;;;;;9.99;100.00;101473.69;5097528;28;20020;-78
2024/03/18 01:15:59;;;;;;;17.63;13.55;;;;;;;10.00;100.00;101470.16;5099528;28;20078;-78
2024/03/18 01:18:25;;;;;;;18.58;13.32;;;;;;;9.99;100.00;101474.56;5092505;28;20021;-78
2024/03/18 01:20:51;;;;;;;22.35;13.90;;;;;;;9.98;100.00;101477.22;5079725;28;20355;-78
2024/03/18 01:23:17;;;;;;;19.98;13.18;;;;;;;10.01;100.00;101471.91;5082601;28;20032;-78
2024/03/18 01:25:42;;;;;;;18.85;12.98;;;;;;;10.00;100.00;101470.16;5099392;28;20231;-78
2024/03/18 01:28:08;;;;;;;27.05;15.35;;;;;;;9.99;100.00;101465.84;5095705;28;20020;-78
2024/03/18 01:30:34;;;;;;;18.52;13.80;;;;;;;10.01;100.00;101469.28;5077348;28;20266;-77
2024/03/18 01:32:59;;;;;;;18.88;13.32;;;;;;;10.00;100.00;101467.56;5078849;28;20054;-78
2024/03/18 01:35:25;;;;;;;18.30;13.23;;;;;;;10.00;100.00;101462.31;5097264;28;20497;-78
2024/03/18 01:37:50;;;;;;;19.75;13.35;;;;;;;10.03;100.00;101462.25;5099741;28;20036;-78
2024/03/18 01:40:17;;;;;;;26.45;14.07;;;;;;;10.02;100.00;101462.28;5081769;28;20036;-78
2024/03/18 01:42:44;;;;;;;19.25;13.27;;;;;;;10.01;100.00;101464.06;5098372;28;20040;-78
2024/03/18 01:45:09;;;;;;;21.17;13.00;;;;;;;10.04;100.00;101461.34;5084440;28;20028;-78
2024/03/18 01:47:36;;;;;;;16.40;12.00;;;;;;;10.07;100.00;101458.63;5079392;28;20028;-78
2024/03/18 01:50:02;;;;;;;18.20;12.50;;;;;;;10.05;100.00;101457.81;5087029;28;20036;-78
2024/03/18 01:52:27;;;;;;;19.60;12.85;;;;;;;10.03;100.00;101454.41;5078593;28;20433;-78
2024/03/18 01:54:53;;;;;;;14.90;11.75;;;;;;;10.06;100.00;101451.69;5087797;28;20230;-78
2024/03/18 01:57:18;;;;;;;12.35;11.05;;;;;;;10.09;100.00;101458.59;5098117;28;20056;-77
2024/03/18 01:59:45;;;;;;;19.00;13.10;;;;;;;10.08;100.00;101446.41;5091672;28;20044;-78
2024/03/18 02:02:13;;;;;;;17.38;11.75;;;;;;;10.07;100.00;101448.16;5076708;28;20270;-77
2024/03/18 02:04:39;;;;;;;19.52;12.27;;;;;;;10.07;100.00;101447.31;5083060;28;20031;-78
2024/03/18 02:07:20;;;;;;;19.05;12.82;;;;;;;10.08;100.00;101442.03;5098470;28;20020;-78
2024/03/18 02:09:45;;;;;;;14.73;12.05;;;;;;;10.06;100.00;101440.34;5094048;28;20033;-77
2024/03/18 02:12:11;;;;;;;16.88;11.98;;;;;;;10.04;100.00;101435.19;5075171;28;20369;-78
2024/03/18 02:14:36;;;;;;;18.90;12.70;;;;;;;10.05;100.00;101439.50;5097551;28;20042;-78
2024/03/18 02:17:03;;;;;;;13.30;11.10;;;;;;;10.06;100.00;101435.13;5080195;28;20032;-78
2024/03/18 02:19:29;;;;;;;14.90;11.98;;;;;;;10.05;100.00;101431.66;5097811;28;20028;-78
2024/03/18 02:21:54;;;;;;;14.07;11.60;;;;;;;10.06;100.00;101437.72;5078203;28;20100;-78
2024/03/18 02:24:21;;;;;;;17.23;11.43;;;;;;;10.06;100.00;101438.63;5077355;28;20036;-78
2024/03/18 02:26:46;;;;;;;12.95;11.00;;;;;;;10.07;100.00;101434.22;5093079;28;20371;-78
2024/03/18 02:29:12;;;;;;;21.92;13.52;;;;;;;10.03;100.00;101432.59;5077451;28;20031;-78
2024/03/18 02:31:37;;;;;;;16.13;12.48;;;;;;;10.05;100.00;101421.19;5090845;28;20036;-77
2024/03/18 02:34:02;;;;;;;23.48;12.32;;;;;;;10.02;100.00;101421.25;5077841;28;20040;-78
2024/03/18 02:36:28;;;;;;;20.58;12.15;;;;;;;10.02;100.00;101420.41;5087807;28;20239;-78
2024/03/18 02:38:53;;;;;;;19.63;12.70;;;;;;;10.02;100.00;101415.19;5097995;28;20039;-78
2024/03/18 02:41:19;;;;;;;18.00;11.98;;;;;;;10.03;100.00;101422.13;5097007;28;20036;-78
2024/03/18 02:43:44;;;;;;;18.65;12.30;;;;;;;10.01;100.00;101414.31;5098052;28;20028;-77
2024/03/18 02:46:09;;;;;;;16.17;12.10;;;;;;;10.02;100.00;101402.09;5088419;28;20044;-77
2024/03/18 02:48:35;;;;;;;14.38;11.55;;;;;;;10.06;100.00;101411.56;5097135;28;20043;-78
2024/03/18 02:51:04;;;;;;;18.92;12.48;;;;;;;10.04;100.00;101409.03;5065628;28;20036;-77
2024/03/18 02:53:31;;;;;;;19.45;12.90;;;;;;;10.03;100.00;101398.59;5095916;28;20026;-78
2024/03/18 02:55:57;;;;;;;14.02;11.57;;;;;;;10.04;100.00;101403.78;5068761;28;20085;-77
2024/03/18 02:58:22;;;;;;;17.23;12.75;;;;;;;10.03;100.00;101404.66;5096930;28;20363;-77
2024/03/18 03:00:47;;;;;;;18.35;11.65;;;;;;;10.03;100.00;101399.44;5097444;28;20035;-77
2024/03/18 03:03:13;;;;;;;16.20;12.35;;;;;;;10.04;100.00;101410.75;5080037;28;20043;-78
2024/03/18 03:05:41;;;;;;;17.27;11.77;;;;;;;10.05;100.00;101412.47;5077571;28;20055;-78
2024/03/18 03:08:06;;;;;;;16.13;12.85;;;;;;;10.03;100.00;101402.06;5091789;28;20365;-79
2024/03/18 03:10:32;;;;;;;17.80;11.68;;;;;;;10.04;100.00;101403.78;5094088;28;20032;-78
2024/03/18 03:12:57;;;;;;;14.43;11.77;;;;;;;10.05;100.00;101404.63;5085123;28;20063;-79
2024/03/18 03:15:23;;;;;;;13.90;11.82;;;;;;;10.04;100.00;101406.41;5060362;28;20020;-78
2024/03/18 03:17:49;;;;;;;16.13;11.98;;;;;;;10.04;100.00;101408.13;5087832;28;20047;-77
2024/03/18 03:20:18;;;;;;;20.92;13.93;;;;;;;10.02;100.00;101407.34;5096661;28;20234;-78
2024/03/18 03:22:44;;;;;;;17.70;12.68;;;;;;;10.04;100.00;101400.28;5089455;28;20036;-77
2024/03/18 03:25:10;;;;;;;17.30;12.13;;;;;;;10.04;100.00;101400.28;5076827;28;20366;-77
2024/03/18 03:27:36;;;;;;;17.52;13.25;;;;;;;10.03;100.00;101411.69;5088154;28;20099;-77
2024/03/18 03:30:02;;;;;;;23.13;14.25;;;;;;;9.99;100.00;101408.28;5076723;28;20029;-77
2024/03/18 03:32:28;;;;;;;20.38;13.00;;;;;;;9.99;100.00;101410.91;5078606;28;20047;-77
2024/03/18 03:34:53;;;;;;;18.88;12.48;;;;;;;10.00;100.00;101409.97;5097573;28;20341;-78
2024/03/18 03:37:19;;;;;;;22.88;13.80;;;;;;;9.97;100.00;101410.94;5075899;28;20031;-77
2024/03/18 03:39:44;;;;;;;19.45;13.27;;;;;;;9.99;100.00;101410.91;5075849;28;20291;-77
2024/03/18 03:42:10;;;;;;;17.08;13.18;;;;;;;9.99;100.00;101426.59;5092751;28;20354;-77
2024/03/18 03:44:35;;;;;;;17.95;13.25;;;;;;;10.00;100.00;101423.06;5077696;28;20099;-78
2024/03/18 03:47:00;;;;;;;23.65;13.90;;;;;;;9.98;100.00;101419.63;5096808;28;20378;-77
2024/03/18 03:49:28;;;;;;;18.88;13.50;;;;;;;9.99;100.00;101424.84;5092649;28;20044;-77
2024/03/18 03:51:53;;;;;;;20.65;13.55;;;;;;;9.97;100.00;101425.78;5095575;28;20016;-78
2024/03/18 03:54:19;;;;;;;27.10;15.18;;;;;;;9.95;100.00;101425.84;5084587;28;20036;-78
2024/03/18 03:56:45;;;;;;;22.10;14.18;;;;;;;9.96;100.00;101435.38;5076923;28;20040;-77
2024/03/18 03:59:10;;;;;;;18.73;13.52;;;;;;;9.96;100.00;101429.31;5087896;28;20048;-77
2024/03/18 04:01:35;;;;;;;24.90;14.65;;;;;;;9.95;100.00;101430.19;5100554;28;20039;-77
2024/03/18 04:04:01;;;;;;;21.45;14.02;;;;;;;9.95;100.00;101431.06;5092574;28;20076;-78
2024/03/18 04:06:26;;;;;;;21.00;14.20;;;;;;;9.96;100.00;101435.38;5079274;28;20040;-77
2024/03/18 04:08:52;;;;;;;23.98;13.65;;;;;;;9.96;100.00;101439.78;5082657;28;20085;-77
2024/03/18 04:11:17;;;;;;;27.27;14.00;;;;;;;9.90;100.00;101440.81;5088244;28;20276;-78
2024/03/18 04:13:43;;;;;;;24.90;13.43;;;;;;;9.87;100.00;101433.03;5100084;28;20035;-78
2024/03/18 04:16:09;;;;;;;26.10;13.48;;;;;;;9.83;100.00;101439.25;5088450;28;20040;-77
2024/03/18 04:18:35;;;;;;;27.42;12.35;;;;;;;9.86;100.00;101443.53;5085175;28;20031;-77
2024/03/18 04:21:03;;;;;;;24.45;13.85;;;;;;;9.89;100.00;101436.44;5084286;28;20097;-77
2024/03/18 04:23:32;;;;;;;26.60;13.07;;;;;;;9.87;100.00;101445.25;5081306;28;20327;-77
2024/03/18 04:26:05;;;;;;;25.65;13.05;;;;;;;9.87;100.00;101448.72;5082054;28;20039;-78
2024/03/18 04:28:34;;;;;;;24.38;12.05;;;;;;;9.87;100.00;101453.13;5080263;28;20044;-77
2024/03/18 04:31:04;;;;;;;20.73;11.68;;;;;;;9.89;100.00;101446.06;5097225;28;20461;-78
2024/03/18 04:33:30;;;;;;;24.50;13.40;;;;;;;9.86;100.00;101448.75;5081991;28;20092;-77
2024/03/18 04:35:55;;;;;;;21.83;11.90;;;;;;;9.88;100.00;101447.00;5095093;28;20047;-78
2024/03/18 04:38:20;;;;;;;14.70;10.85;;;;;;;9.92;100.00;101451.22;5099742;28;20314;-77
2024/03/18 04:40:46;;;;;;;20.40;12.15;;;;;;;9.89;100.00;101449.53;5073605;28;20035;-77
2024/03/18 04:43:11;;;;;;;20.88;11.40;;;;;;;9.89;100.00;101457.38;5099099;28;20047;-77
2024/03/18 04:45:36;;;;;;;23.10;12.30;;;;;;;9.89;100.00;101446.91;5090117;28;20258;-77
2024/03/18 04:48:03;;;;;;;18.00;11.38;;;;;;;9.88;100.00;101445.22;5079754;28;20120;-77
2024/03/18 04:50:29;;;;;;;17.05;11.13;;;;;;;9.89;100.00;101451.31;5084596;28;20077;-77
2024/03/18 04:52:55;;;;;;;20.23;12.00;;;;;;;9.84;100.00;101451.44;5077506;28;20099;-77
2024/03/18 04:55:21;;;;;;;17.83;11.02;;;;;;;9.88;100.00;101455.69;5062702;28;20025;-77
2024/03/18 04:57:51;;;;;;;14.50;10.73;;;;;;;9.88;100.00;101460.06;5081855;28;20048;-77
2024/03/18 05:00:18;;;;;;;18.02;11.52;;;;;;;9.89;100.00;101457.38;5082542;28;20040;-77
2024/03/18 05:02:44;;;;;;;20.95;11.88;;;;;;;9.83;100.00;101454.09;5079860;28;20558;-77
2024/03/18 05:05:12;;;;;;;16.65;10.35;;;;;;;9.86;100.00;101461.84;5079491;28;20036;-77
2024/03/18 05:07:38;;;;;;;20.70;11.17;;;;;;;9.84;100.00;101456.69;5098578;28;20354;-77
2024/03/18 05:10:04;;;;;;;20.15;11.05;;;;;;;9.80;100.00;101463.75;5084877;28;20099;-79
2024/03/18 05:12:30;;;;;;;18.85;10.25;;;;;;;9.83;100.00;101465.41;5091868;28;20243;-77
2024/03/18 05:14:55;;;;;;;20.58;11.32;;;;;;;9.82;100.00;101460.22;5095243;28;20036;-77
2024/03/18 05:17:22;;;;;;;22.17;11.10;;;;;;;9.83;100.00;101449.72;5064739;28;20082;-77
2024/03/18 05:19:48;;;;;;;15.68;10.38;;;;;;;9.83;100.00;101459.34;5061436;28;20036;-77
2024/03/18 05:22:14;;;;;;;28.38;12.15;;;;;;;9.75;100.00;101460.41;5074404;28;20039;-77
2024/03/18 05:24:43;;;;;;;26.05;11.68;;;;;;;9.75;100.00;101452.56;5085437;28;20039;-77
2024/03/18 05:27:10;;;;;;;29.83;13.65;;;;;;;9.74;100.00;101455.22;5090306;28;20047;-77
2024/03/18 05:29:36;;;;;;;36.92;13.60;;;;;;;9.71;100.00;101452.66;5097571;28;20353;-77
2024/03/18 05:32:12;;;;;;;29.88;13.15;;;;;;;9.68;100.00;101451.00;5087901;28;20059;-77
2024/03/18 05:34:38;;;;;;;31.67;12.98;;;;;;;9.68;100.00;101460.59;5092451;28;20046;-77
2024/03/18 05:37:04;;;;;;;28.45;13.38;;;;;;;9.71;100.00;101463.13;5090028;28;20036;-77
2024/03/18 05:39:30;;;;;;;37.45;13.23;;;;;;;9.70;100.00;101459.66;5090759;28;20043;-77
2024/03/18 05:41:56;;;;;;;35.00;13.52;;;;;;;9.70;100.00;101458.81;5093715;28;20032;-77
2024/03/18 05:44:22;;;;;;;37.13;12.63;;;;;;;9.67;100.00;101466.72;5089911;28;20196;-77
2024/03/18 05:46:47;;;;;;;36.97;14.00;;;;;;;9.67;100.00;101453.66;5096120;28;20055;-77
2024/03/18 05:49:12;;;;;;;29.35;13.27;;;;;;;9.63;100.00;101452.88;5090461;28;20032;-77
2024/03/18 05:51:38;;;;;;;35.42;13.27;;;;;;;9.64;100.00;101454.63;5098082;28;20091;-77
2024/03/18 05:54:03;;;;;;;28.35;13.80;;;;;;;9.67;100.00;101456.28;5088753;28;20044;-77
2024/03/18 05:56:29;;;;;;;37.35;13.60;;;;;;;9.66;100.00;101455.44;5098087;28;20076;-77
2024/03/18 05:58:55;;;;;;;24.83;13.23;;;;;;;9.67;100.00;101456.28;5080884;28;20415;-77
2024/03/18 06:01:20;;;;;;;32.08;13.38;;;;;;;9.68;100.00;101457.97;5077471;28;20033;-77
2024/03/18 06:03:46;;;;;;;29.38;13.38;;;;;;;9.68;100.00;101460.59;5079287;28;20048;-77
2024/03/18 06:06:12;;;;;;;27.90;13.40;;;;;;;9.67;100.00;101459.72;5082582;28;20028;-77
2024/03/18 06:08:37;;;;;;;36.33;14.07;;;;;;;9.69;100.00;101463.16;5082633;28;20043;-77
2024/03/18 06:11:04;;;;;;;28.45;13.23;;;;;;;9.70;100.00;101458.81;5084066;28;20070;-77
2024/03/18 06:13:30;;;;;;;32.50;14.00;;;;;;;9.69;100.00;101459.69;5087937;28;20024;-77
2024/03/18 06:15:55;;;;;;;25.75;13.60;;;;;;;9.71;100.00;101461.34;5087139;28;20048;-77
2024/03/18 06:18:21;;;;;;;26.98;12.30;;;;;;;9.74;100.00;101471.75;5087493;28;20284;-77
2024/03/18 06:20:50;;;;;;;34.17;13.52;;;;;;;9.74;100.00;101468.28;5082958;28;20044;-77
2024/03/18 06:23:22;;;;;;;29.50;13.20;;;;;;;9.69;100.00;101471.00;5063313;28;20032;-77
2024/03/18 06:25:57;;;;;;;25.55;12.65;;;;;;;9.71;100.00;101466.59;5097995;28;20036;-77
2024/03/18 06:28:28;;;;;;;34.35;13.40;;;;;;;9.73;100.00;101463.94;5091343;28;20055;-77
2024/03/18 06:30:53;;;;;;;30.80;13.20;;;;;;;9.75;100.00;101472.59;5076252;28;20111;-77
2024/03/18 06:33:19;;;;;;;31.27;14.18;;;;;;;9.74;100.00;101473.53;5064303;28;20024;-77
2024/03/18 06:35:47;;;;;;;31.15;13.32;;;;;;;9.78;100.00;101480.38;5094986;28;20325;-77
2024/03/18 06:38:13;;;;;;;26.90;13.45;;;;;;;9.77;100.00;101476.91;5097144;28;20238;-77
2024/03/18 06:40:41;;;;;;;25.92;13.68;;;;;;;9.76;100.00;101475.19;5097679;28;20080;-77
2024/03/18 06:43:08;;;;;;;34.67;14.77;;;;;;;9.77;100.00;101482.16;5079290;28;20236;-77
2024/03/18 06:45:34;;;;;;;43.70;14.50;;;;;;;9.78;100.00;101481.22;5096045;28;20020;-77
2024/03/18 06:48:03;;;;;;;31.30;14.25;;;;;;;9.80;100.00;101479.44;5096790;28;20393;-77
2024/03/18 06:50:30;;;;;;;29.25;15.00;;;;;;;9.80;100.00;101483.81;5096629;28;20242;-77
2024/03/18 06:52:56;;;;;;;34.42;15.18;;;;;;;9.78;100.00;101485.59;5097041;28;20031;-77
2024/03/18 06:55:22;;;;;;;29.73;14.18;;;;;;;9.79;100.00;101493.41;5095804;28;20111;-77
2024/03/18 06:57:47;;;;;;;37.13;14.52;;;;;;;9.79;100.00;101496.03;5082021;28;20047;-77
2024/03/18 07:00:13;;;;;;;39.42;14.93;;;;;;;9.76;100.00;101501.34;5085050;28;20075;-77
2024/03/18 07:02:38;;;;;;;27.35;12.80;;;;;;;9.80;100.00;101510.84;5088271;28;20470;-77
2024/03/18 07:05:04;;;;;;;35.03;14.60;;;;;;;9.82;100.00;101507.31;5084591;28;20030;-77
2024/03/18 07:07:30;;;;;;;32.42;14.40;;;;;;;9.84;100.00;101511.63;5083477;28;20270;-77
2024/03/18 07:09:55;;;;;;;41.05;13.52;;;;;;;9.84;100.00;101518.59;5076295;28;20036;-77
2024/03/18 07:12:21;;;;;;;35.15;11.73;;;;;;;9.86;100.00;101515.06;5087909;28;20032;-77
2024/03/18 07:14:47;;;;;;;30.98;11.88;;;;;;;9.82;100.00;101512.53;5086878;28;20093;-77
2024/03/18 07:17:13;;;;;;;39.58;12.27;;;;;;;9.76;100.00;101522.25;5089422;28;20040;-77
2024/03/18 07:19:39;;;;;;;31.20;11.00;;;;;;;9.75;100.00;101519.69;5093304;28;20224;-77
2024/03/18 07:22:04;;;;;;;38.40;11.32;;;;;;;9.79;100.00;101523.97;5075942;28;20269;-77
2024/03/18 07:24:30;;;;;;;40.10;12.10;;;;;;;9.75;100.00;101517.94;5091805;28;20491;-77
2024/03/18 07:26:55;;;;;;;26.70;10.57;;;;;;;9.79;100.00;101521.34;5058485;28;20066;-77
2024/03/18 07:29:21;;;;;;;29.80;11.02;;;;;;;9.73;100.00;101519.75;5088481;28;20034;-77
2024/03/18 07:31:46;;;;;;;35.63;9.95;;;;;;;9.76;100.00;101522.25;5078287;28;20024;-77
2024/03/18 07:34:14;;;;;;;29.27;9.85;;;;;;;9.82;100.00;101525.63;5088770;28;20081;-77
2024/03/18 07:36:40;;;;;;;37.78;10.50;;;;;;;9.85;100.00;101525.56;5086391;28;20100;-77
2024/03/18 07:39:06;;;;;;;38.58;10.95;;;;;;;9.84;100.00;101529.06;5088914;28;20051;-77
2024/03/18 07:41:32;;;;;;;33.35;8.60;;;;;;;9.86;100.00;101529.88;5071322;28;20028;-77
2024/03/18 07:43:58;;;;;;;30.60;9.50;;;;;;;9.84;100.00;101521.19;5091652;28;20051;-77
2024/03/18 07:46:23;;;;;;;32.00;8.95;;;;;;;9.84;100.00;101524.69;5081399;28;20032;-77
2024/03/18 07:48:49;;;;;;;29.10;8.13;;;;;;;9.86;100.00;101516.78;5089845;28;20043;-77
2024/03/18 07:51:14;;;;;;;27.58;8.05;;;;;;;9.90;100.00;101518.44;5082746;28;20319;-77
2024/03/18 07:53:40;;;;;;;27.10;7.85;;;;;;;9.90;100.00;101521.91;5091747;28;20016;-77
2024/03/18 07:56:05;;;;;;;30.92;8.65;;;;;;;9.92;100.00;101522.72;5083117;28;20320;-77
2024/03/18 07:58:31;;;;;;;24.65;7.63;;;;;;;9.94;100.00;101525.31;5091182;28;20559;-77
2024/03/18 08:00:56;;;;;;;28.73;7.93;;;;;;;9.95;100.00;101529.63;5094329;28;20200;-77
2024/03/18 08:03:23;;;;;;;24.90;7.57;;;;;;;9.97;100.00;101528.69;5080480;28;20431;-77
2024/03/18 08:05:52;;;;;;;31.92;7.63;;;;;;;10.05;100.00;101540.72;5091676;28;20031;-77
2024/03/18 08:08:18;;;;;;;24.77;7.88;;;;;;;10.09;100.00;101530.09;5075820;28;20378;-77
2024/03/18 08:10:47;;;;;;;32.22;8.18;;;;;;;10.10;100.00;101537.06;5093943;28;20077;-77
2024/03/18 08:13:12;;;;;;;26.50;8.57;;;;;;;10.19;100.00;101534.19;5092009;28;20028;-77
2024/03/18 08:15:38;;;;;;;26.17;7.60;;;;;;;10.23;100.00;101547.19;5093627;28;20032;-77
2024/03/18 08:18:04;;;;;;;28.52;6.80;;;;;;;10.24;100.00;101541.94;5093249;28;20188;-77
2024/03/18 08:20:30;;;;;;;28.60;7.38;;;;;;;10.22;100.00;101550.72;5093916;28;20150;-77
2024/03/18 08:22:55;;;;;;;22.05;6.30;;;;;;;10.27;100.00;101547.06;5091766;28;20067;-77
2024/03/18 08:25:20;;;;;;;32.70;6.95;;;;;;;10.31;100.00;101550.47;5074626;28;20040;-77
2024/03/18 08:27:46;;;;;;;17.55;6.63;;;;;;;10.32;100.00;101554.84;5093120;28;20035;-77
2024/03/18 08:30:11;;;;;;;23.42;6.43;;;;;;;10.35;100.00;101554.72;5093337;28;20028;-77
2024/03/18 08:32:37;;;;;;;18.55;6.05;;;;;;;10.40;100.00;101555.47;5091907;28;20322;-77
2024/03/18 08:35:02;;;;;;;21.88;7.05;;;;;;;10.48;100.00;101555.25;5093162;28;20056;-77
2024/03/18 08:37:28;;;;;;;25.38;5.90;;;;;;;10.52;100.00;101552.50;5093163;28;20040;-77
2024/03/18 08:39:55;;;;;;;16.67;5.55;;;;;;;10.57;100.00;101560.22;5093850;28;20040;-77
2024/03/18 08:42:21;;;;;;;19.70;6.35;;;;;;;10.59;100.00;101565.41;5092768;28;20040;-77
2024/03/18 08:44:49;;;;;;;27.45;6.05;;;;;;;10.62;100.00;101570.56;5092816;28;20084;-77
2024/03/18 08:47:15;;;;;;;18.10;5.28;;;;;;;10.64;100.00;101572.25;5092315;28;20036;-77
2024/03/18 08:49:40;;;;;;;19.52;6.00;;;;;;;10.62;100.00;101571.41;5094064;28;20365;-77
2024/03/18 08:52:07;;;;;;;30.30;6.97;;;;;;;10.62;100.00;101578.41;5092044;28;20382;-77
2024/03/18 08:54:34;;;;;;;19.65;5.22;;;;;;;10.63;100.00;101574.91;5091302;28;20040;-77
2024/03/18 08:57:00;;;;;;;23.77;5.43;;;;;;;10.65;100.00;101575.72;5093912;28;20077;-77
2024/03/18 08:59:25;;;;;;;23.13;6.68;;;;;;;10.67;100.00;101584.38;5089589;28;20073;-77
2024/03/18 09:01:50;;;;;;;15.50;5.78;;;;;;;10.71;100.00;101573.78;5093053;28;20044;-77
2024/03/18 09:04:16;;;;;;;26.55;5.85;;;;;;;10.73;100.00;101581.56;5089670;28;20046;-77
2024/03/18 09:06:41;;;;;;;27.08;6.03;;;;;;;10.73;100.00;101585.06;5092179;28;20039;-77
2024/03/18 09:09:06;;;;;;;21.85;5.10;;;;;;;10.69;100.00;101586.03;5092470;28;20366;-77
2024/03/18 09:11:33;;;;;;;16.73;4.88;;;;;;;10.74;100.00;101580.69;5089016;28;20242;-77
2024/03/18 09:13:58;;;;;;;18.15;4.70;;;;;;;10.77;100.00;101583.22;5074818;28;20024;-77
2024/03/18 09:16:24;;;;;;;7.32;2.30;;;;;;;10.68;100.00;101591.34;5093650;28;20292;-77
2024/03/18 09:18:49;;;;;;;11.77;2.17;;;;;;;10.70;100.00;101593.00;5094047;28;20035;-77
2024/03/18 09:21:16;;;;;;;6.32;1.77;;;;;;;10.71;100.00;101591.25;5092167;28;20038;-77
2024/03/18 09:23:41;;;;;;;10.73;1.90;;;;;;;10.68;100.00;101592.19;5095079;28;20035;-76
2024/03/18 09:26:06;;;;;;;7.70;1.77;;;;;;;10.73;100.00;101584.19;5088399;28;20416;-76
2024/03/18 09:28:32;;;;;;;8.02;1.80;;;;;;;10.79;100.00;101583.16;5091910;28;20115;-76
2024/03/18 09:31:01;;;;;;;8.35;1.70;;;;;;;10.84;100.00;101590.00;5092062;28;20060;-76
2024/03/18 09:33:28;;;;;;;8.75;1.85;;;;;;;10.86;100.00;101589.94;5090193;28;20069;-76
2024/03/18 09:35:54;;;;;;;7.00;1.45;;;;;;;10.87;100.00;101602.97;5092126;28;20265;-76
2024/03/18 09:38:19;;;;;;;8.07;1.63;;;;;;;10.87;100.00;101600.38;5091843;28;20103;-75
2024/03/18 09:40:45;;;;;;;11.00;2.03;;;;;;;10.91;100.00;101607.25;5091892;28;20047;-75
2024/03/18 09:43:11;;;;;;;16.10;2.28;;;;;;;10.94;100.00;101609.75;5089244;28;20354;-76
2024/03/18 09:45:36;;;;;;;13.60;1.98;;;;;;;10.97;100.00;101607.94;5093089;28;20119;-76
2024/03/18 09:48:04;;;;;;;8.88;1.70;;;;;;;10.94;100.00;101604.53;5092830;28;20350;-76
2024/03/18 09:50:31;;;;;;;9.88;1.70;;;;;;;10.97;100.00;101613.19;5091958;28;20046;-76
2024/03/18 09:52:57;;;;;;;8.40;1.60;;;;;;;10.97;100.00;101614.06;5073551;28;20075;-75
2024/03/18 09:55:23;;;;;;;8.52;1.75;;;;;;;10.93;100.00;101623.78;5089317;28;20345;-76
2024/03/18 09:57:50;;;;;;;8.48;2.13;;;;;;;10.95;100.00;101616.72;5072619;28;20028;-76
2024/03/18 10:00:19;;;;;;;12.60;2.03;;;;;;;10.94;100.00;101604.53;5090044;28;20055;-75
2024/03/18 10:02:45;;;;;;;10.57;1.98;;;;;;;10.99;100.00;101600.91;5091744;28;20048;-76
2024/03/18 10:05:11;;;;;;;9.45;1.98;;;;;;;10.99;100.00;101611.38;5090594;28;20058;-76
2024/03/18 10:07:37;;;;;;;12.43;1.58;;;;;;;11.00;100.00;101607.88;5091816;28;20034;-76
2024/03/18 10:10:04;;;;;;;10.05;1.70;;;;;;;10.95;100.00;101614.13;5086609;28;20047;-76
2024/03/18 10:12:30;;;;;;;8.20;1.80;;;;;;;10.97;100.00;101614.06;5088879;28;20325;-76
2024/03/18 10:14:55;;;;;;;5.70;1.38;;;;;;;10.95;100.00;101614.13;5090741;28;20039;-76
2024/03/18 10:17:21;;;;;;;8.27;1.48;;;;;;;10.94;100.00;101622.88;5092472;28;20358;-75
2024/03/18 10:19:47;;;;;;;5.50;1.30;;;;;;;10.94;100.00;101620.25;5092241;28;20038;-75
2024/03/18 10:22:14;;;;;;;14.27;1.83;;;;;;;10.97;100.00;101628.91;5091456;28;20032;-75
2024/03/18 10:24:41;;;;;;;11.25;1.90;;;;;;;10.97;100.00;101626.28;5091835;28;20046;-76
2024/03/18 10:27:08;;;;;;;8.05;1.55;;;;;;;10.95;100.00;101624.59;5090834;28;20338;-75
2024/03/18 10:29:34;;;;;;;10.40;1.60;;;;;;;10.97;100.00;101623.66;5090625;28;20028;-75
2024/03/18 10:32:01;;;;;;;11.45;2.13;;;;;;;10.97;99.80;101621.94;5091369;28;20064;-75
2024/03/18 10:34:35;;;;;;;5.65;1.77;;;;;;;10.98;98.35;101621.00;5090178;28;20065;-78
2024/03/18 10:37:02;;;;;;;4.88;1.13;;;;;;;11.00;99.12;101628.84;5073053;28;20308;-76
2024/03/18 10:39:54;;;;;;;9.88;1.65;;;;;;;11.00;97.80;101629.69;5090214;28;20039;-75
2024/03/18 10:42:21;;;;;;;6.35;1.48;;;;;;;10.97;90.50;101624.56;5090858;28;20047;-75
2024/03/18 10:45:16;;;;;;;10.95;1.52;;;;;;;11.04;88.96;101633.06;5090645;28;20362;-75
2024/03/18 10:47:45;;;;;;;5.50;1.48;;;;;;;11.07;89.92;101644.31;5078084;28;20086;-75
2024/03/18 10:50:15;;;;;;;;;;;;;;;11.10;87.20;101636.38;5091937;28;20036;-75
2024/03/18 10:52:41;;;;;;;7.40;1.52;;;;;;;11.10;90.41;101630.28;5091433;28;19922;-75
2024/03/18 10:55:26;;;;;;;5.93;1.48;;;;;;;11.12;93.34;101639.81;5072942;28;20028;-75
2024/03/18 10:57:57;;;;;;;5.68;1.60;;;;;;;11.12;87.66;101639.81;5085110;28;20020;-75
2024/03/18 11:00:24;;;;;;;3.88;1.15;;;;;;;11.13;89.71;101648.53;5085272;28;20292;-76
2024/03/18 11:03:00;;;;;;;6.20;1.48;;;;;;;11.14;89.90;101645.00;5086421;28;20308;-78
2024/03/18 11:05:31;;;;;;;4.68;1.10;;;;;;;11.16;87.15;101650.22;5087133;28;20531;-77